sensor_id;sensor_type;location;lat;lon;timestamp;P1;durP1;ratioP1;P2;durP2;ratioP2
18659;SDS011;9459;50.254;19.014;2024-03-29T00:01:22;4.22;;;2.33;;
18659;SDS011;9459;50.254;19.014;2024-03-29T00:03:54;5.50;;;2.58;;
18659;SDS011;9459;50.254;19.014;2024-03-29T00:06:20;6.03;;;2.63;;
18659;SDS011;9459;50.254;19.014;2024-03-29T00:08:47;5.05;;;2.38;;
18659;SDS011;9459;50.254;19.014;2024-03-29T00:11:13;5.97;;;2.75;;
18659;SDS011;9459;50.254;19.014;2024-03-29T00:13:40;5.90;;;2.75;;
18659;SDS011;9459;50.254;19.014;2024-03-29T00:16:07;5.75;;;2.60;;
18659;SDS011;9459;50.254;19.014;2024-03-29T00:18:35;6.47;;;3.28;;
18659;SDS011;9459;50.254;19.014;2024-03-29T00:21:02;6.07;;;3.00;;
18659;SDS011;9459;50.254;19.014;2024-03-29T00:23:29;4.32;;;3.15;;
18659;SDS011;9459;50.254;19.014;2024-03-29T00:25:55;4.80;;;3.08;;
18659;SDS011;9459;50.254;19.014;2024-03-29T00:28:22;4.93;;;2.92;;
18659;SDS011;9459;50.254;19.014;2024-03-29T00:30:49;5.75;;;3.47;;
18659;SDS011;9459;50.254;19.014;2024-03-29T00:33:16;4.45;;;3.20;;
18659;SDS011;9459;50.254;19.014;2024-03-29T00:35:44;4.65;;;3.30;;
18659;SDS011;9459;50.254;19.014;2024-03-29T00:38:30;6.43;;;3.90;;
18659;SDS011;9459;50.254;19.014;2024-03-29T00:40:57;6.00;;;3.65;;
18659;SDS011;9459;50.254;19.014;2024-03-29T00:43:23;6.40;;;3.83;;
18659;SDS011;9459;50.254;19.014;2024-03-29T00:45:50;5.80;;;3.58;;
18659;SDS011;9459;50.254;19.014;2024-03-29T00:51:03;5.63;;;3.53;;
18659;SDS011;9459;50.254;19.014;2024-03-29T00:53:30;9.20;;;4.00;;
18659;SDS011;9459;50.254;19.014;2024-03-29T00:55:57;5.65;;;3.70;;
18659;SDS011;9459;50.254;19.014;2024-03-29T00:58:23;7.38;;;3.35;;
18659;SDS011;9459;50.254;19.014;2024-03-29T01:00:50;6.50;;;3.63;;
18659;SDS011;9459;50.254;19.014;2024-03-29T01:03:16;5.60;;;3.22;;
18659;SDS011;9459;50.254;19.014;2024-03-29T01:05:43;6.22;;;3.45;;
18659;SDS011;9459;50.254;19.014;2024-03-29T01:08:11;5.75;;;3.58;;
18659;SDS011;9459;50.254;19.014;2024-03-29T01:10:38;7.38;;;3.65;;
18659;SDS011;9459;50.254;19.014;2024-03-29T01:13:04;6.32;;;3.75;;
18659;SDS011;9459;50.254;19.014;2024-03-29T01:15:49;8.40;;;3.80;;
18659;SDS011;9459;50.254;19.014;2024-03-29T01:18:15;7.80;;;3.83;;
18659;SDS011;9459;50.254;19.014;2024-03-29T01:20:42;6.45;;;3.72;;
18659;SDS011;9459;50.254;19.014;2024-03-29T01:23:10;8.52;;;4.80;;
18659;SDS011;9459;50.254;19.014;2024-03-29T01:25:37;7.70;;;4.55;;
18659;SDS011;9459;50.254;19.014;2024-03-29T01:28:04;6.13;;;4.18;;
18659;SDS011;9459;50.254;19.014;2024-03-29T01:30:31;5.40;;;3.22;;
18659;SDS011;9459;50.254;19.014;2024-03-29T01:32:57;5.97;;;3.95;;
18659;SDS011;9459;50.254;19.014;2024-03-29T01:35:24;5.93;;;4.03;;
18659;SDS011;9459;50.254;19.014;2024-03-29T01:37:50;7.15;;;4.50;;
18659;SDS011;9459;50.254;19.014;2024-03-29T01:40:18;6.90;;;4.25;;
18659;SDS011;9459;50.254;19.014;2024-03-29T01:42:45;6.05;;;3.92;;
18659;SDS011;9459;50.254;19.014;2024-03-29T01:45:11;8.07;;;4.55;;
18659;SDS011;9459;50.254;19.014;2024-03-29T01:47:39;6.68;;;3.85;;
18659;SDS011;9459;50.254;19.014;2024-03-29T01:50:07;7.18;;;4.07;;
18659;SDS011;9459;50.254;19.014;2024-03-29T01:52:35;6.72;;;5.00;;
18659;SDS011;9459;50.254;19.014;2024-03-29T01:55:02;7.20;;;5.20;;
18659;SDS011;9459;50.254;19.014;2024-03-29T01:57:31;6.43;;;5.05;;
18659;SDS011;9459;50.254;19.014;2024-03-29T01:59:59;6.93;;;4.75;;
18659;SDS011;9459;50.254;19.014;2024-03-29T02:02:26;6.43;;;4.60;;
18659;SDS011;9459;50.254;19.014;2024-03-29T02:04:54;7.20;;;3.90;;
18659;SDS011;9459;50.254;19.014;2024-03-29T02:10:09;5.75;;;3.97;;
18659;SDS011;9459;50.254;19.014;2024-03-29T02:12:40;6.30;;;4.10;;
18659;SDS011;9459;50.254;19.014;2024-03-29T02:15:07;5.95;;;4.07;;
18659;SDS011;9459;50.254;19.014;2024-03-29T02:17:35;4.65;;;3.40;;
18659;SDS011;9459;50.254;19.014;2024-03-29T02:20:03;4.93;;;3.38;;
18659;SDS011;9459;50.254;19.014;2024-03-29T02:22:32;5.70;;;3.50;;
18659;SDS011;9459;50.254;19.014;2024-03-29T02:25:03;4.45;;;3.40;;
18659;SDS011;9459;50.254;19.014;2024-03-29T02:27:31;4.80;;;3.80;;
18659;SDS011;9459;50.254;19.014;2024-03-29T02:29:59;8.23;;;4.65;;
18659;SDS011;9459;50.254;19.014;2024-03-29T02:32:26;5.88;;;4.97;;
18659;SDS011;9459;50.254;19.014;2024-03-29T02:34:54;7.43;;;5.45;;
18659;SDS011;9459;50.254;19.014;2024-03-29T02:37:22;7.25;;;5.28;;
18659;SDS011;9459;50.254;19.014;2024-03-29T02:39:50;5.85;;;4.47;;
18659;SDS011;9459;50.254;19.014;2024-03-29T02:42:18;4.97;;;4.20;;
18659;SDS011;9459;50.254;19.014;2024-03-29T02:45:06;7.30;;;3.90;;
18659;SDS011;9459;50.254;19.014;2024-03-29T02:50:38;5.60;;;3.22;;
18659;SDS011;9459;50.254;19.014;2024-03-29T02:53:04;3.90;;;2.58;;
18659;SDS011;9459;50.254;19.014;2024-03-29T02:55:32;4.65;;;2.88;;
18659;SDS011;9459;50.254;19.014;2024-03-29T02:57:59;6.65;;;2.83;;
18659;SDS011;9459;50.254;19.014;2024-03-29T03:00:27;4.60;;;2.30;;
18659;SDS011;9459;50.254;19.014;2024-03-29T03:05:41;3.17;;;2.20;;
18659;SDS011;9459;50.254;19.014;2024-03-29T03:08:07;2.97;;;2.22;;
18659;SDS011;9459;50.254;19.014;2024-03-29T03:13:28;2.88;;;1.92;;
18659;SDS011;9459;50.254;19.014;2024-03-29T03:15:56;2.75;;;1.95;;
18659;SDS011;9459;50.254;19.014;2024-03-29T03:18:23;3.67;;;2.00;;
18659;SDS011;9459;50.254;19.014;2024-03-29T03:20:51;2.13;;;1.77;;
18659;SDS011;9459;50.254;19.014;2024-03-29T03:23:18;3.20;;;1.98;;
18659;SDS011;9459;50.254;19.014;2024-03-29T03:25:46;2.92;;;1.70;;
18659;SDS011;9459;50.254;19.014;2024-03-29T03:31:07;3.63;;;2.10;;
18659;SDS011;9459;50.254;19.014;2024-03-29T03:33:35;3.47;;;2.10;;
18659;SDS011;9459;50.254;19.014;2024-03-29T03:36:03;4.55;;;2.60;;
18659;SDS011;9459;50.254;19.014;2024-03-29T03:38:30;3.85;;;2.03;;
18659;SDS011;9459;50.254;19.014;2024-03-29T03:40:58;2.42;;;1.90;;
18659;SDS011;9459;50.254;19.014;2024-03-29T03:43:25;4.07;;;2.42;;
18659;SDS011;9459;50.254;19.014;2024-03-29T03:45:59;5.70;;;2.05;;
18659;SDS011;9459;50.254;19.014;2024-03-29T03:48:26;2.90;;;2.10;;
18659;SDS011;9459;50.254;19.014;2024-03-29T03:50:55;7.53;;;3.97;;
18659;SDS011;9459;50.254;19.014;2024-03-29T03:53:21;3.10;;;2.20;;
18659;SDS011;9459;50.254;19.014;2024-03-29T03:55:49;4.47;;;2.90;;
18659;SDS011;9459;50.254;19.014;2024-03-29T03:58:15;15.60;;;10.00;;
18659;SDS011;9459;50.254;19.014;2024-03-29T04:00:43;10.02;;;4.82;;
18659;SDS011;9459;50.254;19.014;2024-03-29T04:03:10;4.00;;;3.58;;
18659;SDS011;9459;50.254;19.014;2024-03-29T04:05:39;5.22;;;3.15;;
18659;SDS011;9459;50.254;19.014;2024-03-29T04:08:05;5.47;;;2.90;;
18659;SDS011;9459;50.254;19.014;2024-03-29T04:10:37;6.15;;;3.80;;
18659;SDS011;9459;50.254;19.014;2024-03-29T04:13:04;5.20;;;3.15;;
18659;SDS011;9459;50.254;19.014;2024-03-29T04:15:32;4.80;;;3.00;;
18659;SDS011;9459;50.254;19.014;2024-03-29T04:17:59;3.88;;;2.72;;
18659;SDS011;9459;50.254;19.014;2024-03-29T04:20:28;8.63;;;4.55;;
18659;SDS011;9459;50.254;19.014;2024-03-29T04:22:55;5.50;;;3.80;;
18659;SDS011;9459;50.254;19.014;2024-03-29T04:25:22;9.18;;;4.95;;
18659;SDS011;9459;50.254;19.014;2024-03-29T04:27:49;3.60;;;2.63;;
18659;SDS011;9459;50.254;19.014;2024-03-29T04:30:16;5.63;;;2.80;;
18659;SDS011;9459;50.254;19.014;2024-03-29T04:32:42;3.65;;;2.58;;
18659;SDS011;9459;50.254;19.014;2024-03-29T04:35:10;4.65;;;2.40;;
18659;SDS011;9459;50.254;19.014;2024-03-29T04:37:40;3.83;;;3.22;;
18659;SDS011;9459;50.254;19.014;2024-03-29T04:40:25;5.30;;;3.28;;
18659;SDS011;9459;50.254;19.014;2024-03-29T04:42:53;3.15;;;2.60;;
18659;SDS011;9459;50.254;19.014;2024-03-29T04:45:20;3.50;;;2.20;;
18659;SDS011;9459;50.254;19.014;2024-03-29T04:47:48;4.18;;;2.70;;
18659;SDS011;9459;50.254;19.014;2024-03-29T04:50:15;3.20;;;2.50;;
18659;SDS011;9459;50.254;19.014;2024-03-29T04:52:44;3.72;;;2.85;;
18659;SDS011;9459;50.254;19.014;2024-03-29T04:55:12;3.35;;;2.53;;
18659;SDS011;9459;50.254;19.014;2024-03-29T04:57:39;4.15;;;3.20;;
18659;SDS011;9459;50.254;19.014;2024-03-29T05:00:07;18.05;;;8.15;;
18659;SDS011;9459;50.254;19.014;2024-03-29T05:02:39;4.35;;;2.75;;
18659;SDS011;9459;50.254;19.014;2024-03-29T05:05:07;4.10;;;3.03;;
18659;SDS011;9459;50.254;19.014;2024-03-29T05:07:34;3.83;;;3.42;;
18659;SDS011;9459;50.254;19.014;2024-03-29T05:10:05;3.53;;;3.17;;
18659;SDS011;9459;50.254;19.014;2024-03-29T05:12:35;5.18;;;3.22;;
18659;SDS011;9459;50.254;19.014;2024-03-29T05:15:03;5.75;;;2.80;;
18659;SDS011;9459;50.254;19.014;2024-03-29T05:17:30;5.13;;;2.97;;
18659;SDS011;9459;50.254;19.014;2024-03-29T05:19:58;4.13;;;2.78;;
18659;SDS011;9459;50.254;19.014;2024-03-29T05:22:24;3.63;;;2.55;;
18659;SDS011;9459;50.254;19.014;2024-03-29T05:24:52;3.67;;;2.60;;
18659;SDS011;9459;50.254;19.014;2024-03-29T05:27:21;3.85;;;2.35;;
18659;SDS011;9459;50.254;19.014;2024-03-29T05:29:48;5.60;;;2.70;;
18659;SDS011;9459;50.254;19.014;2024-03-29T05:32:16;4.00;;;2.47;;
18659;SDS011;9459;50.254;19.014;2024-03-29T05:34:44;4.35;;;2.17;;
18659;SDS011;9459;50.254;19.014;2024-03-29T05:37:13;3.72;;;2.20;;
18659;SDS011;9459;50.254;19.014;2024-03-29T05:39:42;3.45;;;2.40;;
18659;SDS011;9459;50.254;19.014;2024-03-29T05:44:58;2.53;;;2.20;;
18659;SDS011;9459;50.254;19.014;2024-03-29T05:47:44;3.63;;;2.28;;
18659;SDS011;9459;50.254;19.014;2024-03-29T05:50:11;4.32;;;2.03;;
18659;SDS011;9459;50.254;19.014;2024-03-29T05:52:38;3.33;;;2.10;;
18659;SDS011;9459;50.254;19.014;2024-03-29T05:55:06;4.53;;;1.90;;
18659;SDS011;9459;50.254;19.014;2024-03-29T05:57:37;3.60;;;2.28;;
18659;SDS011;9459;50.254;19.014;2024-03-29T06:00:07;5.43;;;2.83;;
18659;SDS011;9459;50.254;19.014;2024-03-29T06:05:06;2.45;;;1.70;;
18659;SDS011;9459;50.254;19.014;2024-03-29T06:10:20;3.88;;;1.90;;
18659;SDS011;9459;50.254;19.014;2024-03-29T06:12:50;2.33;;;1.48;;
18659;SDS011;9459;50.254;19.014;2024-03-29T06:18:21;2.42;;;1.60;;
18659;SDS011;9459;50.254;19.014;2024-03-29T06:20:48;3.33;;;1.80;;
18659;SDS011;9459;50.254;19.014;2024-03-29T06:23:16;3.85;;;1.80;;
18659;SDS011;9459;50.254;19.014;2024-03-29T06:25:44;3.00;;;2.30;;
18659;SDS011;9459;50.254;19.014;2024-03-29T06:28:13;2.90;;;1.38;;
18659;SDS011;9459;50.254;19.014;2024-03-29T06:30:41;4.22;;;1.50;;
18659;SDS011;9459;50.254;19.014;2024-03-29T06:33:09;2.38;;;1.13;;
18659;SDS011;9459;50.254;19.014;2024-03-29T06:35:54;2.13;;;1.20;;
18659;SDS011;9459;50.254;19.014;2024-03-29T06:38:22;1.75;;;1.23;;
18659;SDS011;9459;50.254;19.014;2024-03-29T06:40:49;1.90;;;1.20;;
18659;SDS011;9459;50.254;19.014;2024-03-29T06:43:18;2.95;;;1.42;;
18659;SDS011;9459;50.254;19.014;2024-03-29T06:45:49;2.75;;;1.33;;
18659;SDS011;9459;50.254;19.014;2024-03-29T06:48:17;2.33;;;1.30;;
18659;SDS011;9459;50.254;19.014;2024-03-29T06:50:44;3.28;;;1.63;;
18659;SDS011;9459;50.254;19.014;2024-03-29T06:53:12;4.38;;;1.55;;
18659;SDS011;9459;50.254;19.014;2024-03-29T06:55:39;4.05;;;1.50;;
18659;SDS011;9459;50.254;19.014;2024-03-29T06:58:07;3.35;;;1.52;;
18659;SDS011;9459;50.254;19.014;2024-03-29T07:00:37;2.97;;;1.40;;
18659;SDS011;9459;50.254;19.014;2024-03-29T07:03:06;2.75;;;1.63;;
18659;SDS011;9459;50.254;19.014;2024-03-29T07:05:36;3.58;;;1.42;;
18659;SDS011;9459;50.254;19.014;2024-03-29T07:08:04;3.08;;;1.52;;
18659;SDS011;9459;50.254;19.014;2024-03-29T07:10:32;2.75;;;1.15;;
18659;SDS011;9459;50.254;19.014;2024-03-29T07:13:00;3.85;;;1.33;;
18659;SDS011;9459;50.254;19.014;2024-03-29T07:15:28;2.33;;;1.13;;
18659;SDS011;9459;50.254;19.014;2024-03-29T07:17:57;3.17;;;1.42;;
18659;SDS011;9459;50.254;19.014;2024-03-29T07:20:25;2.20;;;1.10;;
18659;SDS011;9459;50.254;19.014;2024-03-29T07:22:52;2.22;;;1.10;;
18659;SDS011;9459;50.254;19.014;2024-03-29T07:25:20;1.85;;;1.20;;
18659;SDS011;9459;50.254;19.014;2024-03-29T07:27:48;2.10;;;1.40;;
18659;SDS011;9459;50.254;19.014;2024-03-29T07:30:16;2.00;;;1.23;;
18659;SDS011;9459;50.254;19.014;2024-03-29T07:32:44;3.03;;;1.10;;
18659;SDS011;9459;50.254;19.014;2024-03-29T07:35:13;1.95;;;1.00;;
18659;SDS011;9459;50.254;19.014;2024-03-29T07:37:43;2.30;;;1.10;;
18659;SDS011;9459;50.254;19.014;2024-03-29T07:40:13;2.65;;;1.20;;
18659;SDS011;9459;50.254;19.014;2024-03-29T07:42:41;2.50;;;1.20;;
18659;SDS011;9459;50.254;19.014;2024-03-29T07:45:08;5.53;;;1.00;;
18659;SDS011;9459;50.254;19.014;2024-03-29T07:47:36;2.28;;;1.00;;
18659;SDS011;9459;50.254;19.014;2024-03-29T07:50:04;2.78;;;0.95;;
18659;SDS011;9459;50.254;19.014;2024-03-29T07:52:36;2.07;;;1.20;;
18659;SDS011;9459;50.254;19.014;2024-03-29T07:55:03;2.17;;;0.88;;
18659;SDS011;9459;50.254;19.014;2024-03-29T07:57:31;1.88;;;1.00;;
18659;SDS011;9459;50.254;19.014;2024-03-29T07:59:59;2.53;;;1.23;;
18659;SDS011;9459;50.254;19.014;2024-03-29T08:02:29;1.65;;;1.00;;
18659;SDS011;9459;50.254;19.014;2024-03-29T08:08:04;3.35;;;1.15;;
18659;SDS011;9459;50.254;19.014;2024-03-29T08:10:32;2.88;;;1.00;;
18659;SDS011;9459;50.254;19.014;2024-03-29T08:13:00;2.08;;;1.00;;
18659;SDS011;9459;50.254;19.014;2024-03-29T08:15:27;2.35;;;1.20;;
18659;SDS011;9459;50.254;19.014;2024-03-29T08:17:55;3.70;;;1.00;;
18659;SDS011;9459;50.254;19.014;2024-03-29T08:20:22;2.13;;;1.10;;
18659;SDS011;9459;50.254;19.014;2024-03-29T08:22:57;3.17;;;1.25;;
18659;SDS011;9459;50.254;19.014;2024-03-29T08:25:26;3.35;;;1.60;;
18659;SDS011;9459;50.254;19.014;2024-03-29T08:27:54;5.30;;;1.57;;
18659;SDS011;9459;50.254;19.014;2024-03-29T08:30:24;4.60;;;1.43;;
18659;SDS011;9459;50.254;19.014;2024-03-29T08:32:53;3.25;;;1.30;;
18659;SDS011;9459;50.254;19.014;2024-03-29T08:35:20;2.35;;;1.27;;
18659;SDS011;9459;50.254;19.014;2024-03-29T08:37:49;2.88;;;1.15;;
18659;SDS011;9459;50.254;19.014;2024-03-29T08:40:17;2.25;;;1.10;;
18659;SDS011;9459;50.254;19.014;2024-03-29T08:42:46;2.80;;;1.10;;
18659;SDS011;9459;50.254;19.014;2024-03-29T08:45:13;2.72;;;1.00;;
18659;SDS011;9459;50.254;19.014;2024-03-29T08:47:41;3.63;;;1.17;;
18659;SDS011;9459;50.254;19.014;2024-03-29T08:50:09;2.88;;;1.20;;
18659;SDS011;9459;50.254;19.014;2024-03-29T08:52:38;2.38;;;1.20;;
18659;SDS011;9459;50.254;19.014;2024-03-29T08:55:05;3.65;;;1.20;;
18659;SDS011;9459;50.254;19.014;2024-03-29T08:57:34;1.85;;;0.80;;
18659;SDS011;9459;50.254;19.014;2024-03-29T09:00:03;2.25;;;1.00;;
18659;SDS011;9459;50.254;19.014;2024-03-29T09:02:34;1.98;;;0.98;;
18659;SDS011;9459;50.254;19.014;2024-03-29T09:05:02;1.40;;;1.08;;
18659;SDS011;9459;50.254;19.014;2024-03-29T09:10:16;1.85;;;1.48;;
18659;SDS011;9459;50.254;19.014;2024-03-29T09:12:44;2.55;;;1.10;;
18659;SDS011;9459;50.254;19.014;2024-03-29T09:15:13;1.75;;;0.82;;
18659;SDS011;9459;50.254;19.014;2024-03-29T09:17:42;1.90;;;1.10;;
18659;SDS011;9459;50.254;19.014;2024-03-29T09:20:10;1.48;;;1.02;;
18659;SDS011;9459;50.254;19.014;2024-03-29T09:22:38;1.38;;;0.88;;
18659;SDS011;9459;50.254;19.014;2024-03-29T09:25:05;3.70;;;1.05;;
18659;SDS011;9459;50.254;19.014;2024-03-29T09:27:35;5.53;;;2.40;;
18659;SDS011;9459;50.254;19.014;2024-03-29T09:30:22;2.63;;;1.40;;
18659;SDS011;9459;50.254;19.014;2024-03-29T09:32:49;1.10;;;0.73;;
18659;SDS011;9459;50.254;19.014;2024-03-29T09:35:17;1.48;;;0.70;;
18659;SDS011;9459;50.254;19.014;2024-03-29T09:37:46;2.53;;;1.10;;
18659;SDS011;9459;50.254;19.014;2024-03-29T09:40:13;1.70;;;1.08;;
18659;SDS011;9459;50.254;19.014;2024-03-29T09:42:43;2.22;;;0.90;;
18659;SDS011;9459;50.254;19.014;2024-03-29T09:45:12;1.75;;;0.75;;
18659;SDS011;9459;50.254;19.014;2024-03-29T09:47:42;1.35;;;0.90;;
18659;SDS011;9459;50.254;19.014;2024-03-29T09:50:10;2.65;;;0.90;;
18659;SDS011;9459;50.254;19.014;2024-03-29T09:52:38;2.15;;;0.95;;
18659;SDS011;9459;50.254;19.014;2024-03-29T09:55:07;3.70;;;1.15;;
18659;SDS011;9459;50.254;19.014;2024-03-29T09:57:35;1.38;;;0.90;;
18659;SDS011;9459;50.254;19.014;2024-03-29T10:00:03;2.05;;;1.00;;
18659;SDS011;9459;50.254;19.014;2024-03-29T10:02:34;1.40;;;0.80;;
18659;SDS011;9459;50.254;19.014;2024-03-29T10:05:04;3.85;;;0.93;;
18659;SDS011;9459;50.254;19.014;2024-03-29T10:07:34;1.80;;;1.08;;
18659;SDS011;9459;50.254;19.014;2024-03-29T10:10:03;1.85;;;0.90;;
18659;SDS011;9459;50.254;19.014;2024-03-29T10:12:50;1.27;;;0.70;;
18659;SDS011;9459;50.254;19.014;2024-03-29T10:15:17;1.13;;;0.63;;
18659;SDS011;9459;50.254;19.014;2024-03-29T10:17:47;1.80;;;1.10;;
18659;SDS011;9459;50.254;19.014;2024-03-29T10:20:17;4.30;;;2.58;;
18659;SDS011;9459;50.254;19.014;2024-03-29T10:22:45;1.67;;;0.98;;
18659;SDS011;9459;50.254;19.014;2024-03-29T10:25:13;1.85;;;0.90;;
18659;SDS011;9459;50.254;19.014;2024-03-29T10:27:41;1.52;;;0.80;;
18659;SDS011;9459;50.254;19.014;2024-03-29T10:30:09;1.98;;;0.70;;
18659;SDS011;9459;50.254;19.014;2024-03-29T10:32:43;1.27;;;0.63;;
18659;SDS011;9459;50.254;19.014;2024-03-29T10:35:10;1.05;;;0.60;;
18659;SDS011;9459;50.254;19.014;2024-03-29T10:37:41;1.23;;;0.73;;
18659;SDS011;9459;50.254;19.014;2024-03-29T10:40:10;1.55;;;1.10;;
18659;SDS011;9459;50.254;19.014;2024-03-29T10:42:41;1.25;;;0.93;;
18659;SDS011;9459;50.254;19.014;2024-03-29T10:45:10;1.00;;;0.80;;
18659;SDS011;9459;50.254;19.014;2024-03-29T10:47:37;5.15;;;1.00;;
18659;SDS011;9459;50.254;19.014;2024-03-29T10:50:07;1.87;;;0.77;;
18659;SDS011;9459;50.254;19.014;2024-03-29T10:52:36;1.83;;;0.80;;
18659;SDS011;9459;50.254;19.014;2024-03-29T10:55:08;2.80;;;0.88;;
18659;SDS011;9459;50.254;19.014;2024-03-29T10:57:39;1.30;;;0.60;;
18659;SDS011;9459;50.254;19.014;2024-03-29T11:00:08;2.22;;;0.60;;
18659;SDS011;9459;50.254;19.014;2024-03-29T11:02:43;1.50;;;0.75;;
18659;SDS011;9459;50.254;19.014;2024-03-29T11:05:16;1.92;;;0.80;;
18659;SDS011;9459;50.254;19.014;2024-03-29T11:07:44;1.63;;;0.80;;
18659;SDS011;9459;50.254;19.014;2024-03-29T11:10:15;1.08;;;0.60;;
18659;SDS011;9459;50.254;19.014;2024-03-29T11:12:50;1.17;;;0.63;;
18659;SDS011;9459;50.254;19.014;2024-03-29T11:15:24;0.80;;;0.60;;
18659;SDS011;9459;50.254;19.014;2024-03-29T11:17:55;1.35;;;0.80;;
18659;SDS011;9459;50.254;19.014;2024-03-29T11:20:26;0.82;;;0.70;;
18659;SDS011;9459;50.254;19.014;2024-03-29T11:23:02;2.38;;;0.75;;
18659;SDS011;9459;50.254;19.014;2024-03-29T11:25:43;2.10;;;0.93;;
18659;SDS011;9459;50.254;19.014;2024-03-29T11:30:45;1.50;;;0.60;;
18659;SDS011;9459;50.254;19.014;2024-03-29T11:33:29;0.97;;;0.50;;
18659;SDS011;9459;50.254;19.014;2024-03-29T11:35:58;0.70;;;0.50;;
18659;SDS011;9459;50.254;19.014;2024-03-29T11:38:30;1.40;;;0.70;;
18659;SDS011;9459;50.254;19.014;2024-03-29T11:41:04;1.17;;;0.45;;
18659;SDS011;9459;50.254;19.014;2024-03-29T11:43:32;1.50;;;0.50;;
18659;SDS011;9459;50.254;19.014;2024-03-29T11:46:00;1.67;;;0.80;;
18659;SDS011;9459;50.254;19.014;2024-03-29T11:48:30;1.05;;;0.68;;
18659;SDS011;9459;50.254;19.014;2024-03-29T11:50:58;2.60;;;0.60;;
18659;SDS011;9459;50.254;19.014;2024-03-29T11:53:26;1.25;;;0.50;;
18659;SDS011;9459;50.254;19.014;2024-03-29T11:55:55;1.85;;;0.80;;
18659;SDS011;9459;50.254;19.014;2024-03-29T11:58:26;1.50;;;0.50;;
18659;SDS011;9459;50.254;19.014;2024-03-29T12:00:55;0.83;;;0.57;;
18659;SDS011;9459;50.254;19.014;2024-03-29T12:03:25;1.45;;;0.70;;
18659;SDS011;9459;50.254;19.014;2024-03-29T12:05:53;2.83;;;0.50;;
18659;SDS011;9459;50.254;19.014;2024-03-29T12:08:24;1.27;;;0.65;;
18659;SDS011;9459;50.254;19.014;2024-03-29T12:10:53;0.55;;;0.40;;
18659;SDS011;9459;50.254;19.014;2024-03-29T12:13:20;1.60;;;0.50;;
18659;SDS011;9459;50.254;19.014;2024-03-29T12:15:49;2.40;;;0.60;;
18659;SDS011;9459;50.254;19.014;2024-03-29T12:18:19;2.47;;;0.60;;
18659;SDS011;9459;50.254;19.014;2024-03-29T12:20:47;0.80;;;0.50;;
18659;SDS011;9459;50.254;19.014;2024-03-29T12:23:15;0.50;;;0.43;;
18659;SDS011;9459;50.254;19.014;2024-03-29T12:25:43;1.13;;;0.50;;
18659;SDS011;9459;50.254;19.014;2024-03-29T12:28:11;1.05;;;0.60;;
18659;SDS011;9459;50.254;19.014;2024-03-29T12:30:41;1.75;;;0.60;;
18659;SDS011;9459;50.254;19.014;2024-03-29T12:33:12;1.45;;;0.50;;
18659;SDS011;9459;50.254;19.014;2024-03-29T12:35:41;2.17;;;0.70;;
18659;SDS011;9459;50.254;19.014;2024-03-29T12:38:10;0.75;;;0.50;;
18659;SDS011;9459;50.254;19.014;2024-03-29T12:40:38;0.70;;;0.50;;
18659;SDS011;9459;50.254;19.014;2024-03-29T12:43:09;1.02;;;0.55;;
18659;SDS011;9459;50.254;19.014;2024-03-29T12:45:39;2.70;;;0.50;;
18659;SDS011;9459;50.254;19.014;2024-03-29T12:48:12;1.27;;;0.70;;
18659;SDS011;9459;50.254;19.014;2024-03-29T12:50:41;0.82;;;0.50;;
18659;SDS011;9459;50.254;19.014;2024-03-29T12:53:10;0.93;;;0.50;;
18659;SDS011;9459;50.254;19.014;2024-03-29T12:55:39;1.02;;;0.60;;
18659;SDS011;9459;50.254;19.014;2024-03-29T13:00:57;1.35;;;0.70;;
18659;SDS011;9459;50.254;19.014;2024-03-29T13:03:27;1.33;;;1.05;;
18659;SDS011;9459;50.254;19.014;2024-03-29T13:05:54;1.85;;;0.50;;
18659;SDS011;9459;50.254;19.014;2024-03-29T13:08:23;3.15;;;0.70;;
18659;SDS011;9459;50.254;19.014;2024-03-29T13:10:50;1.00;;;0.60;;
18659;SDS011;9459;50.254;19.014;2024-03-29T13:13:18;2.25;;;0.73;;
18659;SDS011;9459;50.254;19.014;2024-03-29T13:15:45;1.83;;;0.50;;
18659;SDS011;9459;50.254;19.014;2024-03-29T13:18:13;0.98;;;0.40;;
18659;SDS011;9459;50.254;19.014;2024-03-29T13:20:44;1.50;;;0.50;;
18659;SDS011;9459;50.254;19.014;2024-03-29T13:23:11;1.35;;;0.65;;
18659;SDS011;9459;50.254;19.014;2024-03-29T13:25:40;0.88;;;0.50;;
18659;SDS011;9459;50.254;19.014;2024-03-29T13:28:09;3.15;;;0.65;;
18659;SDS011;9459;50.254;19.014;2024-03-29T13:30:37;0.98;;;0.52;;
18659;SDS011;9459;50.254;19.014;2024-03-29T13:33:09;1.10;;;0.60;;
18659;SDS011;9459;50.254;19.014;2024-03-29T13:35:37;1.35;;;0.70;;
18659;SDS011;9459;50.254;19.014;2024-03-29T13:38:08;1.52;;;0.70;;
18659;SDS011;9459;50.254;19.014;2024-03-29T13:40:35;1.80;;;0.70;;
18659;SDS011;9459;50.254;19.014;2024-03-29T13:43:03;1.30;;;0.50;;
18659;SDS011;9459;50.254;19.014;2024-03-29T13:45:32;1.75;;;0.80;;
18659;SDS011;9459;50.254;19.014;2024-03-29T13:48:01;1.80;;;0.82;;
18659;SDS011;9459;50.254;19.014;2024-03-29T13:53:18;2.05;;;0.82;;
18659;SDS011;9459;50.254;19.014;2024-03-29T13:55:45;1.70;;;0.60;;
18659;SDS011;9459;50.254;19.014;2024-03-29T13:58:13;1.20;;;0.63;;
18659;SDS011;9459;50.254;19.014;2024-03-29T14:00:42;1.88;;;0.70;;
18659;SDS011;9459;50.254;19.014;2024-03-29T14:03:09;1.55;;;0.80;;
18659;SDS011;9459;50.254;19.014;2024-03-29T14:05:37;2.55;;;0.80;;
18659;SDS011;9459;50.254;19.014;2024-03-29T14:08:05;3.70;;;1.52;;
18659;SDS011;9459;50.254;19.014;2024-03-29T14:10:34;1.27;;;0.98;;
18659;SDS011;9459;50.254;19.014;2024-03-29T14:13:02;1.95;;;0.60;;
18659;SDS011;9459;50.254;19.014;2024-03-29T14:15:30;1.63;;;0.75;;
18659;SDS011;9459;50.254;19.014;2024-03-29T14:17:59;5.07;;;2.88;;
18659;SDS011;9459;50.254;19.014;2024-03-29T14:20:45;1.23;;;0.70;;
18659;SDS011;9459;50.254;19.014;2024-03-29T14:23:13;1.15;;;0.82;;
18659;SDS011;9459;50.254;19.014;2024-03-29T14:25:45;4.85;;;3.08;;
18659;SDS011;9459;50.254;19.014;2024-03-29T14:28:13;6.57;;;3.72;;
18659;SDS011;9459;50.254;19.014;2024-03-29T14:30:40;2.80;;;0.73;;
18659;SDS011;9459;50.254;19.014;2024-03-29T14:33:08;5.05;;;2.38;;
18659;SDS011;9459;50.254;19.014;2024-03-29T14:35:36;1.73;;;0.70;;
18659;SDS011;9459;50.254;19.014;2024-03-29T14:38:04;3.92;;;1.92;;
18659;SDS011;9459;50.254;19.014;2024-03-29T14:40:50;3.83;;;1.15;;
18659;SDS011;9459;50.254;19.014;2024-03-29T14:43:17;4.18;;;1.45;;
18659;SDS011;9459;50.254;19.014;2024-03-29T14:48:32;1.52;;;0.80;;
18659;SDS011;9459;50.254;19.014;2024-03-29T14:51:00;3.00;;;1.00;;
18659;SDS011;9459;50.254;19.014;2024-03-29T14:53:28;2.95;;;0.90;;
18659;SDS011;9459;50.254;19.014;2024-03-29T14:56:17;4.00;;;1.00;;
18659;SDS011;9459;50.254;19.014;2024-03-29T14:58:44;2.75;;;1.00;;
18659;SDS011;9459;50.254;19.014;2024-03-29T15:01:12;2.88;;;0.80;;
18659;SDS011;9459;50.254;19.014;2024-03-29T15:03:40;2.25;;;0.90;;
18659;SDS011;9459;50.254;19.014;2024-03-29T15:06:08;2.55;;;1.00;;
18659;SDS011;9459;50.254;19.014;2024-03-29T15:08:35;4.57;;;1.00;;
18659;SDS011;9459;50.254;19.014;2024-03-29T15:11:03;3.10;;;1.17;;
18659;SDS011;9459;50.254;19.014;2024-03-29T15:13:34;2.53;;;0.90;;
18659;SDS011;9459;50.254;19.014;2024-03-29T15:19:07;3.95;;;0.70;;
18659;SDS011;9459;50.254;19.014;2024-03-29T15:21:34;5.28;;;1.10;;
18659;SDS011;9459;50.254;19.014;2024-03-29T15:24:05;2.50;;;1.20;;
18659;SDS011;9459;50.254;19.014;2024-03-29T15:26:33;2.92;;;1.30;;
18659;SDS011;9459;50.254;19.014;2024-03-29T15:29:03;2.95;;;1.00;;
18659;SDS011;9459;50.254;19.014;2024-03-29T15:31:37;4.32;;;1.58;;
18659;SDS011;9459;50.254;19.014;2024-03-29T15:34:06;2.85;;;1.27;;
18659;SDS011;9459;50.254;19.014;2024-03-29T15:36:35;4.05;;;1.25;;
18659;SDS011;9459;50.254;19.014;2024-03-29T15:39:03;3.35;;;1.30;;
18659;SDS011;9459;50.254;19.014;2024-03-29T15:44:02;1.95;;;0.85;;
18659;SDS011;9459;50.254;19.014;2024-03-29T15:46:49;3.83;;;1.25;;
18659;SDS011;9459;50.254;19.014;2024-03-29T15:49:17;3.17;;;1.10;;